createdAt,value
2019-06-20T00:01:36.273Z,14.57
2019-06-20T00:04:05.987Z,14.00
2019-06-20T00:06:35.642Z,15.17
2019-06-20T00:09:07.140Z,15.93
2019-06-20T00:11:36.895Z,13.90
2019-06-20T00:14:07.544Z,14.03
2019-06-20T00:16:37.334Z,15.07
2019-06-20T00:19:07.072Z,14.63
2019-06-20T00:21:36.738Z,14.27
2019-06-20T00:24:06.375Z,14.93
2019-06-20T00:26:36.517Z,15.83
2019-06-20T00:29:06.236Z,14.13
2019-06-20T00:31:36.027Z,14.57
2019-06-20T00:34:05.785Z,13.87
2019-06-20T00:36:35.629Z,13.90
2019-06-20T00:39:07.815Z,14.27
2019-06-20T00:41:37.509Z,13.10
2019-06-20T00:44:07.504Z,13.13
2019-06-20T00:46:37.332Z,12.97
2019-06-20T00:49:06.996Z,12.93
2019-06-20T00:51:38.111Z,13.45
2019-06-20T00:54:07.759Z,13.47
2019-06-20T00:56:37.823Z,13.38
2019-06-20T00:59:07.796Z,13.83
2019-06-20T01:01:37.446Z,14.30
2019-06-20T01:04:07.254Z,14.27
2019-06-20T01:06:37.046Z,14.33
2019-06-20T01:09:08.639Z,14.07
2019-06-20T01:11:38.568Z,16.03
2019-06-20T01:14:08.222Z,15.10
2019-06-20T01:16:38.854Z,15.17
2019-06-20T01:19:08.564Z,16.07
2019-06-20T01:21:38.453Z,15.47
2019-06-20T01:24:08.270Z,16.80
2019-06-20T01:26:38.210Z,15.08
2019-06-20T01:29:08.539Z,15.45
2019-06-20T01:31:38.190Z,15.20
2019-06-20T01:34:09.019Z,15.53
2019-06-20T01:36:38.993Z,14.45
2019-06-20T01:39:10.525Z,13.63
2019-06-20T01:41:40.178Z,14.47
2019-06-20T01:44:09.979Z,15.00
2019-06-20T01:46:40.164Z,15.25
2019-06-20T01:49:10.163Z,14.85
2019-06-20T01:51:40.170Z,15.05
2019-06-20T01:54:10.119Z,14.63
2019-06-20T01:56:39.803Z,14.03
2019-06-20T01:59:09.509Z,14.23
2019-06-20T02:01:39.182Z,14.53
2019-06-20T02:04:09.216Z,13.05
2019-06-20T02:06:39.164Z,14.23
2019-06-20T02:09:09.440Z,14.93
2019-06-20T02:11:39.569Z,14.95
2019-06-20T02:14:09.641Z,14.13
2019-06-20T02:16:39.671Z,13.05
2019-06-20T02:19:09.715Z,13.53
2019-06-20T02:21:39.666Z,13.78
2019-06-20T02:24:09.827Z,13.90
2019-06-20T02:26:39.656Z,13.67
2019-06-20T02:29:09.678Z,15.40
2019-06-20T02:31:39.702Z,15.00
2019-06-20T02:34:09.665Z,15.75
2019-06-20T02:36:40.259Z,16.05
2019-06-20T02:39:10.206Z,15.10
2019-06-20T02:41:40.369Z,15.95
2019-06-20T02:44:28.493Z,16.37
2019-06-20T02:46:42.081Z,16.77
2019-06-20T02:49:12.177Z,16.48
2019-06-20T02:51:42.559Z,15.70
2019-06-20T02:54:12.510Z,16.55
2019-06-20T02:56:42.492Z,15.10
2019-06-20T02:59:12.449Z,15.72
2019-06-20T03:01:42.503Z,14.60
2019-06-20T03:04:12.523Z,14.90
2019-06-20T03:06:42.627Z,13.80
2019-06-20T03:09:12.643Z,14.18
2019-06-20T03:11:42.638Z,13.60
2019-06-20T03:14:12.627Z,13.70
2019-06-20T03:16:42.732Z,13.80
2019-06-20T03:19:12.707Z,13.80
2019-06-20T03:21:42.678Z,13.37
2019-06-20T03:24:12.681Z,12.95
2019-06-20T03:26:42.376Z,13.23
2019-06-20T03:29:12.149Z,13.80
2019-06-20T03:31:42.219Z,12.07
2019-06-20T03:34:12.252Z,12.28
2019-06-20T03:36:42.199Z,14.03
2019-06-20T03:39:12.183Z,12.70
2019-06-20T03:41:42.467Z,13.85
2019-06-20T03:44:12.487Z,15.08
2019-06-20T03:46:42.434Z,15.28
2019-06-20T03:49:12.416Z,14.43
2019-06-20T03:51:42.431Z,14.50
2019-06-20T03:54:12.434Z,14.65
2019-06-20T03:56:42.431Z,14.60
2019-06-20T03:59:12.399Z,14.43
2019-06-20T04:01:42.404Z,15.08
2019-06-20T04:04:12.433Z,14.75
2019-06-20T04:06:42.441Z,14.80
2019-06-20T04:09:12.376Z,15.10
2019-06-20T04:11:42.374Z,15.58
2019-06-20T04:14:12.521Z,15.70
2019-06-20T04:16:42.483Z,15.05
2019-06-20T04:19:12.449Z,15.75
2019-06-20T04:21:42.415Z,15.25
2019-06-20T04:24:12.110Z,14.63
2019-06-20T04:26:42.076Z,15.28
2019-06-20T04:29:12.033Z,16.32
2019-06-20T04:31:41.816Z,15.07
2019-06-20T04:34:11.552Z,15.13
2019-06-20T04:36:41.522Z,14.95
2019-06-20T04:39:19.354Z,13.97
2019-06-20T04:41:42.881Z,14.40
2019-06-20T04:44:12.822Z,15.18
2019-06-20T04:46:53.516Z,16.80
2019-06-20T04:49:23.448Z,16.77
2019-06-20T04:51:53.509Z,15.28
2019-06-20T04:54:23.484Z,16.90
2019-06-20T04:56:53.253Z,15.40
2019-06-20T04:59:23.227Z,15.90
2019-06-20T05:01:52.930Z,15.53
2019-06-20T05:04:22.519Z,15.72
2019-06-20T05:06:53.635Z,14.75
2019-06-20T05:09:23.522Z,15.85
2019-06-20T05:11:53.492Z,15.40
2019-06-20T05:14:23.771Z,14.60
2019-06-20T05:16:53.724Z,14.45
2019-06-20T05:19:24.844Z,14.63
2019-06-20T05:21:54.855Z,15.38
2019-06-20T05:24:25.652Z,14.13
2019-06-20T05:26:55.586Z,13.50
2019-06-20T05:29:25.261Z,13.20
2019-06-20T05:31:55.225Z,13.87
2019-06-20T05:34:25.207Z,13.98
2019-06-20T05:36:54.955Z,14.30
2019-06-20T05:39:24.934Z,13.83
2019-06-20T05:41:54.566Z,14.30
2019-06-20T05:44:24.322Z,13.33
2019-06-20T05:47:08.511Z,13.20
2019-06-20T05:49:25.442Z,13.57
2019-06-20T05:51:55.119Z,16.73
2019-06-20T05:54:24.774Z,15.20
2019-06-20T05:56:54.708Z,13.40
2019-06-20T05:59:24.681Z,12.88
2019-06-20T06:01:56.386Z,13.17
2019-06-20T06:04:26.362Z,13.20
2019-06-20T06:06:56.145Z,12.97
2019-06-20T06:09:25.980Z,13.53
2019-06-20T06:11:56.003Z,12.03
2019-06-20T06:14:26.206Z,12.05
2019-06-20T06:16:56.167Z,10.10
2019-06-20T06:19:26.143Z,12.10
2019-06-20T06:21:56.154Z,11.35
2019-06-20T06:24:26.092Z,12.28
2019-06-20T06:26:59.724Z,11.00
2019-06-20T06:29:27.766Z,10.20
2019-06-20T06:31:57.766Z,10.43
2019-06-20T06:34:27.780Z,10.55
2019-06-20T06:36:57.778Z,10.25
2019-06-20T06:39:27.814Z,10.72
2019-06-20T06:41:57.820Z,10.45
2019-06-20T06:44:31.704Z,11.30
2019-06-20T06:47:00.417Z,9.50
2019-06-20T06:49:30.513Z,9.30
2019-06-20T06:52:00.633Z,9.17
2019-06-20T06:54:30.445Z,8.10
2019-06-20T06:57:00.122Z,8.20
2019-06-20T06:59:29.792Z,8.60
2019-06-20T07:01:59.756Z,13.83
2019-06-20T07:04:29.520Z,8.93
2019-06-20T07:06:59.320Z,9.10
2019-06-20T07:09:28.973Z,8.93
2019-06-20T07:11:58.712Z,9.53
2019-06-20T07:14:28.456Z,9.80
2019-06-20T07:17:00.535Z,9.43
2019-06-20T07:19:30.493Z,9.73
2019-06-20T07:22:00.476Z,8.97
2019-06-20T07:24:30.191Z,8.50
2019-06-20T07:27:00.847Z,8.60
2019-06-20T07:29:30.538Z,7.73
2019-06-20T07:32:00.208Z,10.17
2019-06-20T07:34:30.154Z,10.00
2019-06-20T07:36:59.783Z,8.00
2019-06-20T07:39:29.437Z,9.07
2019-06-20T07:41:59.141Z,7.67
2019-06-20T07:44:28.927Z,20.17
2019-06-20T07:46:58.746Z,8.93
2019-06-20T07:49:28.494Z,8.33
2019-06-20T07:51:58.211Z,7.83
2019-06-20T07:54:27.954Z,7.67
2019-06-20T07:56:57.604Z,8.43
2019-06-20T07:59:27.256Z,9.23
2019-06-20T08:01:56.992Z,9.07
2019-06-20T08:04:26.882Z,11.53
2019-06-20T08:06:56.602Z,8.30
2019-06-20T08:09:43.648Z,8.60
2019-06-20T08:11:57.659Z,7.50
2019-06-20T08:14:27.333Z,7.77
2019-06-20T08:16:57.035Z,6.43
2019-06-20T08:19:27.527Z,7.00
2019-06-20T08:21:57.177Z,6.53
2019-06-20T08:24:26.823Z,6.93
2019-06-20T08:26:57.531Z,6.70
2019-06-20T08:29:27.816Z,6.03
2019-06-20T08:31:57.935Z,6.47
2019-06-20T08:34:30.358Z,6.30
2019-06-20T08:37:00.540Z,6.53
2019-06-20T08:39:30.322Z,6.27
2019-06-20T08:42:02.785Z,6.40
2019-06-20T08:44:34.193Z,6.10
2019-06-20T08:47:03.889Z,6.33
2019-06-20T08:49:33.633Z,5.83
2019-06-20T08:52:03.571Z,5.63
2019-06-20T08:54:33.255Z,6.07
2019-06-20T08:57:04.048Z,6.00
2019-06-20T08:59:34.305Z,6.40
2019-06-20T09:04:33.995Z,5.50
2019-06-20T09:09:33.680Z,5.53
2019-06-20T09:12:05.004Z,5.50
2019-06-20T09:14:34.864Z,5.87
2019-06-20T09:17:04.514Z,5.60
2019-06-20T09:19:34.311Z,5.73
2019-06-20T09:22:05.030Z,6.00
2019-06-20T09:24:34.812Z,5.80
2019-06-20T09:27:04.466Z,6.17
2019-06-20T09:29:41.785Z,6.20
2019-06-20T09:32:06.107Z,6.90
2019-06-20T09:34:35.773Z,5.87
2019-06-20T09:37:05.427Z,5.97
2019-06-20T09:39:35.079Z,6.13
2019-06-20T09:42:04.823Z,8.23
2019-06-20T09:44:34.555Z,7.07
2019-06-20T09:47:04.527Z,5.67
2019-06-20T09:49:34.276Z,5.07
2019-06-20T09:52:04.564Z,5.27
2019-06-20T09:54:34.233Z,6.37
2019-06-20T09:57:04.335Z,6.17
2019-06-20T09:59:34.229Z,6.53
2019-06-20T10:02:03.998Z,5.80
2019-06-20T10:04:33.712Z,6.20
2019-06-20T10:07:03.384Z,6.20
2019-06-20T10:09:33.009Z,5.43
2019-06-20T10:12:02.700Z,5.90
2019-06-20T10:14:32.378Z,5.93
2019-06-20T10:17:02.066Z,5.57
2019-06-20T10:19:31.899Z,5.90
2019-06-20T10:22:01.557Z,5.47
2019-06-20T10:24:45.765Z,5.80
2019-06-20T10:27:16.758Z,7.93
2019-06-20T10:29:47.565Z,6.57
2019-06-20T10:32:17.851Z,5.87
2019-06-20T10:34:48.363Z,5.80
2019-06-20T10:37:18.115Z,5.93
2019-06-20T10:39:47.801Z,5.90
2019-06-20T10:42:17.552Z,5.20
2019-06-20T10:44:47.663Z,5.47
2019-06-20T10:47:31.618Z,6.37
2019-06-20T10:49:50.428Z,5.50
2019-06-20T10:52:20.282Z,5.03
2019-06-20T10:54:49.945Z,5.13
2019-06-20T10:57:19.687Z,5.03
2019-06-20T10:59:50.814Z,5.07
2019-06-20T11:02:20.569Z,5.60
2019-06-20T11:04:50.365Z,5.20
2019-06-20T11:07:20.071Z,5.63
2019-06-20T11:09:49.708Z,5.70
2019-06-20T11:12:19.362Z,5.43
2019-06-20T11:14:49.362Z,5.23
2019-06-20T11:17:19.142Z,5.10
2019-06-20T11:19:48.780Z,5.77
2019-06-20T11:22:19.233Z,5.47
2019-06-20T11:24:48.919Z,5.03
2019-06-20T11:27:18.917Z,5.50
2019-06-20T11:29:48.551Z,5.63
2019-06-20T11:32:18.176Z,6.00
2019-06-20T11:34:47.838Z,5.03
2019-06-20T11:37:17.482Z,5.30
2019-06-20T11:39:47.437Z,5.07
2019-06-20T11:42:17.275Z,5.83
2019-06-20T11:44:47.463Z,5.50
2019-06-20T11:47:20.413Z,5.27
2019-06-20T11:49:48.631Z,5.37
2019-06-20T11:52:18.263Z,5.50
2019-06-20T11:54:48.024Z,5.77
2019-06-20T11:57:17.664Z,4.63
2019-06-20T11:59:47.330Z,5.37
2019-06-20T12:02:16.990Z,5.07
2019-06-20T12:04:47.102Z,5.57
2019-06-20T12:07:17.867Z,5.37
2019-06-20T12:09:47.506Z,5.30
2019-06-20T12:12:17.257Z,5.40
2019-06-20T12:14:46.899Z,5.37
2019-06-20T12:17:16.526Z,5.10
2019-06-20T12:19:46.726Z,5.13
2019-06-20T12:22:16.492Z,5.20
2019-06-20T12:24:47.052Z,4.87
2019-06-20T12:27:16.777Z,5.17
2019-06-20T12:29:46.534Z,5.17
2019-06-20T12:32:17.960Z,6.63
2019-06-20T12:34:49.016Z,9.43
2019-06-20T12:37:18.811Z,5.87
2019-06-20T12:39:48.707Z,5.20
2019-06-20T12:42:18.570Z,4.47
2019-06-20T12:44:48.189Z,4.43
2019-06-20T12:47:17.854Z,4.20
2019-06-20T12:49:47.639Z,4.33
2019-06-20T12:52:17.306Z,4.80
2019-06-20T12:54:47.077Z,4.30
2019-06-20T12:57:16.743Z,4.70
2019-06-20T12:59:46.395Z,4.70
2019-06-20T13:02:16.099Z,4.70
2019-06-20T13:04:46.071Z,10.07
2019-06-20T13:07:15.828Z,6.70
2019-06-20T13:09:46.294Z,4.80
2019-06-20T13:12:16.548Z,5.10
2019-06-20T13:14:47.517Z,4.30
2019-06-20T13:17:17.259Z,4.60
2019-06-20T13:19:47.079Z,4.67
2019-06-20T13:22:17.801Z,11.70
2019-06-20T13:24:49.506Z,6.63
2019-06-20T13:27:19.306Z,5.47
2019-06-20T13:29:49.455Z,5.50
2019-06-20T13:32:19.346Z,6.33
2019-06-20T13:34:49.049Z,4.83
2019-06-20T13:37:19.783Z,4.73
2019-06-20T13:39:50.148Z,4.90
2019-06-20T13:42:20.033Z,7.70
2019-06-20T13:44:50.740Z,5.40
2019-06-20T13:47:21.913Z,4.70
2019-06-20T13:49:51.554Z,5.13
2019-06-20T13:52:21.172Z,5.50
2019-06-20T13:54:50.809Z,5.60
2019-06-20T13:57:20.448Z,5.70
2019-06-20T13:59:52.728Z,5.57
2019-06-20T14:02:21.439Z,5.67
2019-06-20T14:04:51.194Z,5.20
2019-06-20T14:07:20.929Z,5.20
2019-06-20T14:09:51.107Z,5.20
2019-06-20T14:12:20.970Z,5.50
2019-06-20T14:14:51.931Z,5.50
2019-06-20T14:17:22.039Z,5.50
2019-06-20T14:19:51.785Z,5.03
2019-06-20T14:22:21.499Z,5.33
2019-06-20T14:24:53.525Z,4.77
2019-06-20T14:27:23.685Z,5.47
2019-06-20T14:29:53.368Z,5.17
2019-06-20T14:32:23.087Z,58.80
2019-06-20T14:34:54.249Z,6.83
2019-06-20T14:37:24.141Z,5.67
2019-06-20T14:39:54.984Z,4.70
2019-06-20T14:42:24.947Z,5.30
2019-06-20T14:44:54.598Z,5.83
2019-06-20T14:47:24.240Z,5.43
2019-06-20T14:49:54.084Z,4.80
2019-06-20T14:52:23.856Z,4.80
2019-06-20T14:54:53.999Z,5.03
2019-06-20T14:57:23.987Z,3.20
2019-06-20T14:59:54.418Z,2.97
2019-06-20T15:02:37.500Z,5.60
2019-06-20T15:04:55.613Z,4.83
2019-06-20T15:07:25.262Z,6.27
2019-06-20T15:09:55.238Z,6.23
2019-06-20T15:12:25.945Z,5.80
2019-06-20T15:14:55.658Z,5.13
2019-06-20T15:17:26.449Z,6.73
2019-06-20T15:19:56.255Z,7.63
2019-06-20T15:22:26.054Z,9.40
2019-06-20T15:24:57.240Z,10.63
2019-06-20T15:27:27.048Z,9.33
2019-06-20T15:29:57.088Z,10.63
2019-06-20T15:32:27.044Z,12.70
2019-06-20T15:34:57.317Z,12.50
2019-06-20T15:37:29.431Z,11.25
2019-06-20T15:39:59.474Z,12.20
2019-06-20T15:42:29.150Z,11.63
2019-06-20T15:44:59.174Z,12.37
2019-06-20T15:47:28.868Z,13.83
2019-06-20T15:49:58.517Z,13.50
2019-06-20T15:52:28.279Z,13.07
2019-06-20T15:54:58.006Z,12.37
2019-06-20T15:57:27.737Z,13.63
2019-06-20T15:59:57.474Z,13.70
2019-06-20T16:02:27.204Z,13.40
2019-06-20T16:04:56.934Z,31.97
2019-06-20T16:07:26.588Z,13.87
2019-06-20T16:09:56.255Z,14.20
2019-06-20T16:12:25.919Z,14.13
2019-06-20T16:14:55.565Z,14.90
2019-06-20T16:17:25.295Z,13.60
2019-06-20T16:19:55.047Z,14.40
2019-06-20T16:22:24.753Z,15.10
2019-06-20T16:24:54.403Z,14.50
2019-06-20T16:27:24.990Z,14.13
2019-06-20T16:29:54.715Z,13.33
2019-06-20T16:32:24.470Z,12.73
2019-06-20T16:34:54.289Z,13.67
2019-06-20T16:37:24.019Z,13.43
2019-06-20T16:39:53.752Z,12.97
2019-06-20T16:42:23.426Z,12.87
2019-06-20T16:44:53.152Z,13.17
2019-06-20T16:47:22.863Z,13.57
2019-06-20T16:49:52.526Z,13.10
2019-06-20T16:52:22.341Z,13.90
2019-06-20T16:54:52.133Z,13.60
2019-06-20T16:57:21.789Z,13.33
2019-06-20T16:59:51.491Z,13.43
2019-06-20T17:02:21.380Z,14.37
2019-06-20T17:04:51.066Z,13.03
2019-06-20T17:07:20.794Z,12.80
2019-06-20T17:09:50.460Z,15.83
2019-06-20T17:12:20.179Z,17.40
2019-06-20T17:14:49.810Z,12.47
2019-06-20T17:17:19.463Z,13.10
2019-06-20T17:19:49.112Z,13.10
2019-06-20T17:22:19.744Z,13.20
2019-06-20T17:24:49.375Z,13.33
2019-06-20T17:27:19.107Z,13.63
2019-06-20T17:29:49.683Z,13.70
2019-06-20T17:32:19.422Z,13.17
2019-06-20T17:34:49.132Z,13.53
2019-06-20T17:37:19.789Z,12.83
2019-06-20T17:39:49.435Z,13.67
2019-06-20T17:42:19.132Z,13.67
2019-06-20T17:44:48.824Z,13.70
2019-06-20T17:47:18.519Z,13.37
2019-06-20T17:49:48.167Z,13.53
2019-06-20T17:52:17.861Z,14.50
2019-06-20T17:54:47.511Z,14.80
2019-06-20T17:57:17.214Z,15.03
2019-06-20T17:59:46.928Z,14.27
2019-06-20T18:02:16.702Z,15.57
2019-06-20T18:04:46.415Z,19.00
2019-06-20T18:07:16.057Z,18.90
2019-06-20T18:09:45.714Z,20.83
2019-06-20T18:12:15.379Z,19.10
2019-06-20T18:14:45.040Z,15.40
2019-06-20T18:17:14.787Z,14.83
2019-06-20T18:19:45.563Z,16.60
2019-06-20T18:22:15.219Z,21.97
2019-06-20T18:24:44.958Z,18.10
2019-06-20T18:27:14.613Z,16.20
2019-06-20T18:29:44.284Z,15.53
2019-06-20T18:32:15.777Z,18.43
2019-06-20T18:35:00.512Z,17.33
2019-06-20T18:37:30.630Z,14.37
2019-06-20T18:39:50.237Z,14.67
2019-06-20T18:42:19.876Z,14.77
2019-06-20T18:44:49.653Z,15.00
2019-06-20T18:47:21.886Z,57.60
2019-06-20T18:49:50.769Z,18.27
2019-06-20T18:52:20.524Z,15.23
2019-06-20T18:54:50.262Z,15.20
2019-06-20T18:57:19.925Z,15.97
2019-06-20T18:59:49.648Z,16.53
2019-06-20T19:02:19.376Z,14.80
2019-06-20T19:04:50.852Z,15.53
2019-06-20T19:07:20.567Z,15.80
2019-06-20T19:09:50.696Z,16.43
2019-06-20T19:12:20.354Z,18.13
2019-06-20T19:14:50.124Z,17.07
2019-06-20T19:17:19.764Z,17.03
2019-06-20T19:19:49.438Z,16.63
2019-06-20T19:22:19.094Z,13.93
2019-06-20T19:24:49.054Z,11.43
2019-06-20T19:27:19.098Z,10.98
2019-06-20T19:29:49.815Z,10.00
2019-06-20T19:32:20.493Z,10.87
2019-06-20T19:35:01.304Z,10.93
2019-06-20T19:37:22.297Z,10.55
2019-06-20T19:39:52.987Z,9.63
2019-06-20T19:42:22.920Z,9.90
2019-06-20T19:44:52.872Z,10.65
2019-06-20T19:47:22.856Z,10.13
2019-06-20T19:49:52.507Z,10.70
2019-06-20T19:52:22.524Z,10.38
2019-06-20T19:54:52.177Z,20.43
2019-06-20T19:57:22.107Z,11.40
2019-06-20T19:59:52.094Z,11.68
2019-06-20T20:02:22.100Z,13.08
2019-06-20T20:04:52.165Z,13.88
2019-06-20T20:07:21.900Z,13.37
2019-06-20T20:09:51.841Z,13.75
2019-06-20T20:12:21.503Z,15.03
2019-06-20T20:14:51.220Z,14.67
2019-06-20T20:17:20.879Z,15.53
2019-06-20T20:19:50.634Z,14.87
2019-06-20T20:22:20.400Z,14.30
2019-06-20T20:24:50.186Z,14.53
2019-06-20T20:27:20.054Z,15.23
2019-06-20T20:29:49.775Z,15.07
2019-06-20T20:32:19.519Z,17.40
2019-06-20T20:34:49.153Z,16.70
2019-06-20T20:37:18.809Z,16.17
2019-06-20T20:39:48.839Z,20.10
2019-06-20T20:42:19.576Z,17.03
2019-06-20T20:44:49.236Z,17.53
2019-06-20T20:47:18.881Z,16.07
2019-06-20T20:49:48.538Z,15.40
2019-06-20T20:52:18.267Z,14.50
2019-06-20T20:54:48.017Z,52.80
2019-06-20T20:57:17.754Z,16.30
2019-06-20T20:59:48.595Z,16.10
2019-06-20T21:02:18.263Z,16.70
2019-06-20T21:04:47.966Z,16.30
2019-06-20T21:07:17.678Z,16.47
2019-06-20T21:09:47.330Z,15.93
2019-06-20T21:12:17.135Z,16.03
2019-06-20T21:14:46.783Z,15.73
2019-06-20T21:17:16.473Z,15.67
2019-06-20T21:19:46.215Z,16.50
2019-06-20T21:22:15.921Z,16.20
2019-06-20T21:24:45.624Z,15.63
2019-06-20T21:27:15.367Z,16.07
2019-06-20T21:29:45.657Z,17.87
2019-06-20T21:32:15.331Z,16.00
2019-06-20T21:34:45.956Z,16.60
2019-06-20T21:37:15.770Z,16.57
2019-06-20T21:39:45.515Z,15.60
2019-06-20T21:42:15.247Z,16.83
2019-06-20T21:44:44.923Z,16.60
2019-06-20T21:47:16.200Z,19.85
2019-06-20T21:49:45.952Z,25.20
2019-06-20T21:52:15.662Z,25.30
2019-06-20T21:54:45.301Z,16.63
2019-06-20T21:57:15.047Z,33.60
2019-06-20T21:59:45.006Z,17.60
2019-06-20T22:02:14.957Z,16.82
2019-06-20T22:04:54.113Z,16.27
2019-06-20T22:07:16.383Z,15.98
2019-06-20T22:09:46.361Z,16.97
2019-06-20T22:12:16.067Z,16.00
2019-06-20T22:14:46.024Z,16.25
2019-06-20T22:17:15.682Z,14.93
2019-06-20T22:19:45.436Z,16.13
2019-06-20T22:22:15.205Z,16.20
2019-06-20T22:24:45.162Z,16.30
2019-06-20T22:27:14.843Z,16.13
2019-06-20T22:29:44.636Z,15.90
2019-06-20T22:32:14.601Z,16.17
2019-06-20T22:34:44.262Z,16.00
2019-06-20T22:37:14.814Z,15.93
2019-06-20T22:39:44.479Z,16.47
2019-06-20T22:42:15.967Z,16.53
2019-06-20T22:44:46.006Z,16.20
2019-06-20T22:47:16.826Z,15.83
2019-06-20T22:49:46.481Z,16.37
2019-06-20T22:52:16.511Z,21.25
2019-06-20T22:54:46.479Z,15.58
2019-06-20T22:57:16.136Z,15.13
2019-06-20T22:59:46.772Z,15.63
2019-06-20T23:02:16.879Z,14.18
2019-06-20T23:04:46.855Z,13.75
2019-06-20T23:07:16.531Z,13.27
2019-06-20T23:09:46.841Z,13.25
2019-06-20T23:12:16.915Z,12.23
2019-06-20T23:14:46.876Z,12.85
2019-06-20T23:17:16.956Z,13.25
2019-06-20T23:19:46.623Z,12.90
2019-06-20T23:22:16.704Z,12.45
2019-06-20T23:24:46.563Z,12.97
2019-06-20T23:27:16.290Z,12.53
2019-06-20T23:29:46.294Z,14.00
2019-06-20T23:32:16.253Z,13.30
2019-06-20T23:34:46.208Z,14.00
2019-06-20T23:37:17.066Z,14.10
2019-06-20T23:39:47.088Z,13.62
2019-06-20T23:42:17.126Z,13.98
2019-06-20T23:44:46.956Z,13.57
2019-06-20T23:47:16.757Z,14.10
2019-06-20T23:49:47.077Z,13.95
2019-06-20T23:52:18.835Z,14.18
2019-06-20T23:54:48.912Z,14.38
2019-06-20T23:57:18.920Z,14.40
2019-06-20T23:59:48.978Z,15.40
